Terminal Aerodrome Forecast
Issued by NWS

Home | Current Version | Previous Version | Text Only | Print | Product List | Glossary On
Versions: 1 2 3 4 5 6 7 8 9 10 11 12 13 14 15 16 17 18 19 20 21 22 23 24 25 26 27
000
FTUS41 KOKX 240800 AAA
TAFTEB
TAF AMD
KTEB 240843Z 2409/2506 17012G20KT 2SM RA BR OVC005 WS020/18060KT
     FM241300 18012G21KT 3SM SHRA BR OVC006 WS020/21050KT
     FM241500 20012G21KT 6SM BR SCT008 BKN015
     FM241900 21015G28KT P6SM SCT015 BKN040
     FM250200 21012G23KT P6SM BKN015 BKN040=

USA.gov is the U.S. government's official web portal to all federal, state and local government web resources and services.